PWSweather.com
Personal Weather Stations
Station Observations
IMAZOWIE6
WarszawaPL

WarszawaPL

Lat: 52.27957, Lon: 21.05489

Elevation: 100

Station Type: WS1080

http://stacjapogody.waw.pl/

High Low Average
Temperature 61.7°F16.5°C 43.3°F6.3°C 51.5°F10.8°C
Dew Point -166.6°F-110.3°C -168.5°F-111.4°C -167.6°F-110.9°C
Winds 1.4 mph 2.3 kmh Calm Calm Calm NCalm N
Wind Gusts 4.0 mph6.4 kmh -- 1.0 mph1.6 kmh
Humidity - - -
Pressure 29.34 in993.6 mb 29.21 in989.2 mb -
Precipitation 0.00 in0.0 mm - -
Hour Temp Dew Point Humidity Winds Wind Gusts Pressure Precip Precip Rate Daily Precip Total
12:01 AM 45.0°F7.2°C -168.3°F-111.3°C - Calm Calm 2.0 mph3.2 kmh 29.34 in993.6 mb 0.00 in0.0 mm 0.00 in0.0 mm 0.00 in0.0 mm
12:16 AM 45.3°F7.4°C -168.3°F-111.3°C - Calm Calm 0.6 mph1.0 kmh 29.34 in993.6 mb 0.00 in0.0 mm 0.00 in0.0 mm 0.00 in0.0 mm
12:31 AM 45.0°F7.2°C -168.3°F-111.3°C - Calm Calm -- 29.34 in993.6 mb 0.00 in0.0 mm 0.00 in0.0 mm 0.00 in0.0 mm
12:46 AM 44.6°F7.0°C -168.3°F-111.3°C - Calm Calm -- 29.34 in993.6 mb 0.00 in0.0 mm 0.00 in0.0 mm 0.00 in0.0 mm
01:01 AM 44.8°F7.1°C -168.3°F-111.3°C - Calm Calm 0.6 mph1.0 kmh 29.34 in993.6 mb 0.00 in0.0 mm 0.00 in0.0 mm 0.00 in0.0 mm
01:16 AM 44.4°F6.9°C -168.4°F-111.3°C - Calm Calm -- 29.34 in993.6 mb 0.00 in0.0 mm 0.00 in0.0 mm 0.00 in0.0 mm
01:31 AM 44.6°F7.0°C -168.3°F-111.3°C - Calm Calm 0.6 mph1.0 kmh 29.34 in993.6 mb 0.00 in0.0 mm 0.00 in0.0 mm 0.00 in0.0 mm
01:46 AM 45.3°F7.4°C -168.3°F-111.3°C - 0.6 mph N1.0 kmh N 3.4 mph5.5 kmh 29.33 in993.2 mb 0.00 in0.0 mm 0.00 in0.0 mm 0.00 in0.0 mm
02:01 AM 45.9°F7.7°C -168.2°F-111.2°C - Calm Calm 1.4 mph2.3 kmh 29.33 in993.2 mb 0.00 in0.0 mm 0.00 in0.0 mm 0.00 in0.0 mm
02:16 AM 45.7°F7.6°C -168.2°F-111.2°C - Calm Calm 1.4 mph2.3 kmh 29.32 in992.9 mb 0.00 in0.0 mm 0.00 in0.0 mm 0.00 in0.0 mm
02:31 AM 45.5°F7.5°C -168.3°F-111.3°C - Calm Calm 2.8 mph4.5 kmh 29.31 in992.6 mb 0.00 in0.0 mm 0.00 in0.0 mm 0.00 in0.0 mm
02:46 AM 45.3°F7.4°C -168.3°F-111.3°C - 0.6 mph N1.0 kmh N 3.4 mph5.5 kmh 29.32 in992.9 mb 0.00 in0.0 mm 0.00 in0.0 mm 0.00 in0.0 mm
03:01 AM 45.3°F7.4°C -168.3°F-111.3°C - 0.6 mph N1.0 kmh N 3.4 mph5.5 kmh 29.32 in992.9 mb 0.00 in0.0 mm 0.00 in0.0 mm 0.00 in0.0 mm
03:16 AM 45.0°F7.2°C -168.3°F-111.3°C - Calm Calm 0.6 mph1.0 kmh 29.31 in992.6 mb 0.00 in0.0 mm 0.00 in0.0 mm 0.00 in0.0 mm
03:31 AM 44.6°F7.0°C -168.3°F-111.3°C - Calm Calm 0.6 mph1.0 kmh 29.31 in992.6 mb 0.00 in0.0 mm 0.00 in0.0 mm 0.00 in0.0 mm
03:46 AM 44.1°F6.7°C -168.4°F-111.3°C - Calm Calm 2.0 mph3.2 kmh 29.31 in992.6 mb 0.00 in0.0 mm 0.00 in0.0 mm 0.00 in0.0 mm
04:01 AM 43.9°F6.6°C -168.4°F-111.3°C - Calm Calm 2.8 mph4.5 kmh 29.31 in992.6 mb 0.00 in0.0 mm 0.00 in0.0 mm 0.00 in0.0 mm
04:16 AM 43.5°F6.4°C -168.4°F-111.3°C - Calm Calm 2.0 mph3.2 kmh 29.31 in992.6 mb 0.00 in0.0 mm 0.00 in0.0 mm 0.00 in0.0 mm
04:31 AM 43.3°F6.3°C -168.5°F-111.4°C - Calm Calm -- 29.30 in992.2 mb 0.00 in0.0 mm 0.00 in0.0 mm 0.00 in0.0 mm
04:46 AM 43.3°F6.3°C -168.5°F-111.4°C - Calm Calm -- 29.31 in992.6 mb 0.00 in0.0 mm 0.00 in0.0 mm 0.00 in0.0 mm
05:01 AM 43.3°F6.3°C -168.5°F-111.4°C - Calm Calm 2.8 mph4.5 kmh 29.31 in992.6 mb 0.00 in0.0 mm 0.00 in0.0 mm 0.00 in0.0 mm
05:16 AM 43.3°F6.3°C -168.5°F-111.4°C - Calm Calm 0.6 mph1.0 kmh 29.31 in992.6 mb 0.00 in0.0 mm 0.00 in0.0 mm 0.00 in0.0 mm
05:31 AM 43.5°F6.4°C -168.4°F-111.3°C - Calm Calm -- 29.31 in992.6 mb 0.00 in0.0 mm 0.00 in0.0 mm 0.00 in0.0 mm
05:46 AM 43.5°F6.4°C -168.4°F-111.3°C - Calm Calm -- 29.31 in992.6 mb 0.00 in0.0 mm 0.00 in0.0 mm 0.00 in0.0 mm
06:01 AM 43.5°F6.4°C -168.4°F-111.3°C - Calm Calm -- 29.31 in992.6 mb 0.00 in0.0 mm 0.00 in0.0 mm 0.00 in0.0 mm
06:16 AM 43.3°F6.3°C -168.5°F-111.4°C - Calm Calm 2.0 mph3.2 kmh 29.30 in992.2 mb 0.00 in0.0 mm 0.00 in0.0 mm 0.00 in0.0 mm
06:30 AM 43.3°F6.3°C -168.5°F-111.4°C - Calm Calm 2.0 mph3.2 kmh 29.30 in992.2 mb 0.00 in0.0 mm 0.00 in0.0 mm 0.00 in0.0 mm
06:46 AM 43.3°F6.3°C -168.5°F-111.4°C - Calm Calm 1.4 mph2.3 kmh 29.31 in992.6 mb 0.00 in0.0 mm 0.00 in0.0 mm 0.00 in0.0 mm
07:01 AM 43.7°F6.5°C -168.4°F-111.3°C - Calm Calm -- 29.31 in992.6 mb 0.00 in0.0 mm 0.00 in0.0 mm 0.00 in0.0 mm
07:16 AM 43.9°F6.6°C -168.4°F-111.3°C - 0.6 mph N1.0 kmh N 2.0 mph3.2 kmh 29.31 in992.6 mb 0.00 in0.0 mm 0.00 in0.0 mm 0.00 in0.0 mm
07:31 AM 44.1°F6.7°C -168.4°F-111.3°C - Calm Calm 2.0 mph3.2 kmh 29.30 in992.2 mb 0.00 in0.0 mm 0.00 in0.0 mm 0.00 in0.0 mm
07:46 AM 44.6°F7.0°C -168.3°F-111.3°C - Calm Calm -- 29.31 in992.6 mb 0.00 in0.0 mm 0.00 in0.0 mm 0.00 in0.0 mm
08:01 AM 45.3°F7.4°C -168.3°F-111.3°C - Calm Calm 1.4 mph2.3 kmh 29.31 in992.6 mb 0.00 in0.0 mm 0.00 in0.0 mm 0.00 in0.0 mm
08:16 AM 45.7°F7.6°C -168.2°F-111.2°C - Calm Calm 3.4 mph5.5 kmh 29.31 in992.6 mb 0.00 in0.0 mm 0.00 in0.0 mm 0.00 in0.0 mm
08:31 AM 46.8°F8.2°C -168.1°F-111.2°C - Calm Calm -- 29.31 in992.6 mb 0.00 in0.0 mm 0.00 in0.0 mm 0.00 in0.0 mm
08:46 AM 45.9°F7.7°C -168.2°F-111.2°C - Calm Calm 2.0 mph3.2 kmh 29.31 in992.6 mb 0.00 in0.0 mm 0.00 in0.0 mm 0.00 in0.0 mm
09:01 AM 47.3°F8.5°C -168.1°F-111.2°C - Calm Calm -- 29.31 in992.6 mb 0.00 in0.0 mm 0.00 in0.0 mm 0.00 in0.0 mm
09:16 AM 48.7°F9.3°C -167.9°F-111.1°C - Calm Calm 0.6 mph1.0 kmh 29.31 in992.6 mb 0.00 in0.0 mm 0.00 in0.0 mm 0.00 in0.0 mm
09:31 AM 50.0°F10.0°C -167.8°F-111.0°C - Calm Calm 2.8 mph4.5 kmh 29.31 in992.6 mb 0.00 in0.0 mm 0.00 in0.0 mm 0.00 in0.0 mm
09:46 AM 51.8°F11.0°C -167.6°F-110.9°C - Calm Calm 1.4 mph2.3 kmh 29.31 in992.6 mb 0.00 in0.0 mm 0.00 in0.0 mm 0.00 in0.0 mm
10:01 AM 53.8°F12.1°C -167.4°F-110.8°C - Calm Calm -- 29.31 in992.6 mb 0.00 in0.0 mm 0.00 in0.0 mm 0.00 in0.0 mm
10:16 AM 54.9°F12.7°C -167.3°F-110.7°C - Calm Calm -- 29.31 in992.6 mb 0.00 in0.0 mm 0.00 in0.0 mm 0.00 in0.0 mm
10:31 AM 57.7°F14.3°C -167.0°F-110.6°C - Calm Calm 0.6 mph1.0 kmh 29.31 in992.6 mb 0.00 in0.0 mm 0.00 in0.0 mm 0.00 in0.0 mm
10:46 AM 59.4°F15.2°C -166.9°F-110.5°C - 1.4 mph N2.3 kmh N 2.8 mph4.5 kmh 29.31 in992.6 mb 0.00 in0.0 mm 0.00 in0.0 mm 0.00 in0.0 mm
11:01 AM 60.4°F15.8°C -166.8°F-110.4°C - Calm Calm -- 29.30 in992.2 mb 0.00 in0.0 mm 0.00 in0.0 mm 0.00 in0.0 mm
11:16 AM 57.2°F14.0°C -167.1°F-110.6°C - Calm Calm 0.6 mph1.0 kmh 29.30 in992.2 mb 0.00 in0.0 mm 0.00 in0.0 mm 0.00 in0.0 mm
11:31 AM 57.9°F14.4°C -167.0°F-110.6°C - Calm Calm -- 29.30 in992.2 mb 0.00 in0.0 mm 0.00 in0.0 mm 0.00 in0.0 mm
11:46 AM 57.4°F14.1°C -167.1°F-110.6°C - Calm Calm -- 29.30 in992.2 mb 0.00 in0.0 mm 0.00 in0.0 mm 0.00 in0.0 mm
12:01 PM 58.1°F14.5°C -167.0°F-110.6°C - Calm Calm 1.4 mph2.3 kmh 29.30 in992.2 mb 0.00 in0.0 mm 0.00 in0.0 mm 0.00 in0.0 mm
12:16 PM 57.9°F14.4°C -167.0°F-110.6°C - Calm Calm 2.0 mph3.2 kmh 29.29 in991.9 mb 0.00 in0.0 mm 0.00 in0.0 mm 0.00 in0.0 mm
12:31 PM 57.6°F14.2°C -167.0°F-110.6°C - Calm Calm 1.4 mph2.3 kmh 29.29 in991.9 mb 0.00 in0.0 mm 0.00 in0.0 mm 0.00 in0.0 mm
12:46 PM 57.4°F14.1°C -167.1°F-110.6°C - Calm Calm 1.4 mph2.3 kmh 29.29 in991.9 mb 0.00 in0.0 mm 0.00 in0.0 mm 0.00 in0.0 mm
01:01 PM 59.0°F15.0°C -166.9°F-110.5°C - 0.6 mph N1.0 kmh N 2.8 mph4.5 kmh 29.29 in991.9 mb 0.00 in0.0 mm 0.00 in0.0 mm 0.00 in0.0 mm
01:16 PM 60.6°F15.9°C -166.7°F-110.4°C - Calm Calm 2.0 mph3.2 kmh 29.29 in991.9 mb 0.00 in0.0 mm 0.00 in0.0 mm 0.00 in0.0 mm
01:31 PM 59.7°F15.4°C -166.8°F-110.4°C - Calm Calm -- 29.28 in991.5 mb 0.00 in0.0 mm 0.00 in0.0 mm 0.00 in0.0 mm
01:46 PM 60.6°F15.9°C -166.7°F-110.4°C - Calm Calm 1.4 mph2.3 kmh 29.28 in991.5 mb 0.00 in0.0 mm 0.00 in0.0 mm 0.00 in0.0 mm
02:01 PM 61.7°F16.5°C -166.6°F-110.3°C - 0.6 mph N1.0 kmh N 3.4 mph5.5 kmh 29.28 in991.5 mb 0.00 in0.0 mm 0.00 in0.0 mm 0.00 in0.0 mm
02:16 PM 60.8°F16.0°C -166.7°F-110.4°C - 1.4 mph N2.3 kmh N 3.4 mph5.5 kmh 29.27 in991.2 mb 0.00 in0.0 mm 0.00 in0.0 mm 0.00 in0.0 mm
02:31 PM 61.0°F16.1°C -166.7°F-110.4°C - Calm Calm 0.6 mph1.0 kmh 29.27 in991.2 mb 0.00 in0.0 mm 0.00 in0.0 mm 0.00 in0.0 mm
02:46 PM 60.4°F15.8°C -166.8°F-110.4°C - Calm Calm 2.0 mph3.2 kmh 29.27 in991.2 mb 0.00 in0.0 mm 0.00 in0.0 mm 0.00 in0.0 mm
03:01 PM 59.9°F15.5°C -166.8°F-110.4°C - Calm Calm 2.0 mph3.2 kmh 29.26 in990.9 mb 0.00 in0.0 mm 0.00 in0.0 mm 0.00 in0.0 mm
03:16 PM 59.7°F15.4°C -166.8°F-110.4°C - Calm Calm 2.0 mph3.2 kmh 29.26 in990.9 mb 0.00 in0.0 mm 0.00 in0.0 mm 0.00 in0.0 mm
03:31 PM 59.9°F15.5°C -166.8°F-110.4°C - Calm Calm -- 29.26 in990.9 mb 0.00 in0.0 mm 0.00 in0.0 mm 0.00 in0.0 mm
03:46 PM 60.3°F15.7°C -166.8°F-110.4°C - Calm Calm -- 29.25 in990.5 mb 0.00 in0.0 mm 0.00 in0.0 mm 0.00 in0.0 mm
04:01 PM 60.1°F15.6°C -166.8°F-110.4°C - 0.6 mph N1.0 kmh N 4.0 mph6.4 kmh 29.24 in990.2 mb 0.00 in0.0 mm 0.00 in0.0 mm 0.00 in0.0 mm
04:16 PM 60.1°F15.6°C -166.8°F-110.4°C - Calm Calm 0.6 mph1.0 kmh 29.24 in990.2 mb 0.00 in0.0 mm 0.00 in0.0 mm 0.00 in0.0 mm
04:31 PM 60.1°F15.6°C -166.8°F-110.4°C - Calm Calm -- 29.24 in990.2 mb 0.00 in0.0 mm 0.00 in0.0 mm 0.00 in0.0 mm
04:46 PM 59.7°F15.4°C -166.8°F-110.4°C - Calm Calm 0.6 mph1.0 kmh 29.24 in990.2 mb 0.00 in0.0 mm 0.00 in0.0 mm 0.00 in0.0 mm
05:01 PM 59.5°F15.3°C -166.8°F-110.4°C - Calm Calm 1.4 mph2.3 kmh 29.23 in989.8 mb 0.00 in0.0 mm 0.00 in0.0 mm 0.00 in0.0 mm
05:16 PM 59.0°F15.0°C -166.9°F-110.5°C - 0.6 mph N1.0 kmh N 3.4 mph5.5 kmh 29.24 in990.2 mb 0.00 in0.0 mm 0.00 in0.0 mm 0.00 in0.0 mm
05:31 PM 58.5°F14.7°C -167.0°F-110.6°C - Calm Calm 4.0 mph6.4 kmh 29.23 in989.8 mb 0.00 in0.0 mm 0.00 in0.0 mm 0.00 in0.0 mm
05:46 PM 57.6°F14.2°C -167.0°F-110.6°C - 0.6 mph N1.0 kmh N 2.8 mph4.5 kmh 29.23 in989.8 mb 0.00 in0.0 mm 0.00 in0.0 mm 0.00 in0.0 mm
06:01 PM 57.2°F14.0°C -167.1°F-110.6°C - Calm Calm -- 29.23 in989.8 mb 0.00 in0.0 mm 0.00 in0.0 mm 0.00 in0.0 mm
06:16 PM 56.5°F13.6°C -167.2°F-110.7°C - Calm Calm 0.6 mph1.0 kmh 29.22 in989.5 mb 0.00 in0.0 mm 0.00 in0.0 mm 0.00 in0.0 mm
06:31 PM 55.9°F13.3°C -167.2°F-110.7°C - Calm Calm 0.6 mph1.0 kmh 29.22 in989.5 mb 0.00 in0.0 mm 0.00 in0.0 mm 0.00 in0.0 mm
06:46 PM 55.6°F13.1°C -167.2°F-110.7°C - Calm Calm 1.4 mph2.3 kmh 29.22 in989.5 mb 0.00 in0.0 mm 0.00 in0.0 mm 0.00 in0.0 mm
07:01 PM 55.2°F12.9°C -167.3°F-110.7°C - Calm Calm -- 29.24 in990.2 mb 0.00 in0.0 mm 0.00 in0.0 mm 0.00 in0.0 mm
07:16 PM 54.5°F12.5°C -167.4°F-110.8°C - Calm Calm -- 29.24 in990.2 mb 0.00 in0.0 mm 0.00 in0.0 mm 0.00 in0.0 mm
07:31 PM 53.8°F12.1°C -167.4°F-110.8°C - Calm Calm 0.6 mph1.0 kmh 29.24 in990.2 mb 0.00 in0.0 mm 0.00 in0.0 mm 0.00 in0.0 mm
07:46 PM 53.6°F12.0°C -167.4°F-110.8°C - Calm Calm -- 29.24 in990.2 mb 0.00 in0.0 mm 0.00 in0.0 mm 0.00 in0.0 mm
08:01 PM 53.2°F11.8°C -167.5°F-110.8°C - 0.6 mph N1.0 kmh N 3.4 mph5.5 kmh 29.24 in990.2 mb 0.00 in0.0 mm 0.00 in0.0 mm 0.00 in0.0 mm
08:16 PM 52.7°F11.5°C -167.5°F-110.8°C - 0.6 mph N1.0 kmh N 2.0 mph3.2 kmh 29.24 in990.2 mb 0.00 in0.0 mm 0.00 in0.0 mm 0.00 in0.0 mm
08:31 PM 52.5°F11.4°C -167.5°F-110.8°C - Calm Calm -- 29.24 in990.2 mb 0.00 in0.0 mm 0.00 in0.0 mm 0.00 in0.0 mm
08:46 PM 52.3°F11.3°C -167.6°F-110.9°C - Calm Calm 0.6 mph1.0 kmh 29.24 in990.2 mb 0.00 in0.0 mm 0.00 in0.0 mm 0.00 in0.0 mm
09:01 PM 51.8°F11.0°C -167.6°F-110.9°C - Calm Calm 1.4 mph2.3 kmh 29.24 in990.2 mb 0.00 in0.0 mm 0.00 in0.0 mm 0.00 in0.0 mm
09:16 PM 51.6°F10.9°C -167.6°F-110.9°C - Calm Calm -- 29.24 in990.2 mb 0.00 in0.0 mm 0.00 in0.0 mm 0.00 in0.0 mm
09:31 PM 51.4°F10.8°C -167.7°F-110.9°C - Calm Calm 2.0 mph3.2 kmh 29.24 in990.2 mb 0.00 in0.0 mm 0.00 in0.0 mm 0.00 in0.0 mm
09:46 PM 51.1°F10.6°C -167.7°F-110.9°C - Calm Calm 2.0 mph3.2 kmh 29.24 in990.2 mb 0.00 in0.0 mm 0.00 in0.0 mm 0.00 in0.0 mm
10:01 PM 51.1°F10.6°C -167.7°F-110.9°C - Calm Calm -- 29.23 in989.8 mb 0.00 in0.0 mm 0.00 in0.0 mm 0.00 in0.0 mm
10:16 PM 51.1°F10.6°C -167.7°F-110.9°C - Calm Calm -- 29.23 in989.8 mb 0.00 in0.0 mm 0.00 in0.0 mm 0.00 in0.0 mm
10:31 PM 50.9°F10.5°C -167.7°F-110.9°C - Calm Calm 2.0 mph3.2 kmh 29.22 in989.5 mb 0.00 in0.0 mm 0.00 in0.0 mm 0.00 in0.0 mm
10:46 PM 50.7°F10.4°C -167.7°F-110.9°C - Calm Calm 2.0 mph3.2 kmh 29.22 in989.5 mb 0.00 in0.0 mm 0.00 in0.0 mm 0.00 in0.0 mm
11:01 PM 50.2°F10.1°C -167.8°F-111.0°C - Calm Calm 0.6 mph1.0 kmh 29.21 in989.2 mb 0.00 in0.0 mm 0.00 in0.0 mm 0.00 in0.0 mm
11:16 PM 49.3°F9.6°C -167.9°F-111.1°C - 0.6 mph N1.0 kmh N 3.4 mph5.5 kmh 29.21 in989.2 mb 0.00 in0.0 mm 0.00 in0.0 mm 0.00 in0.0 mm
11:31 PM 48.9°F9.4°C -167.9°F-111.1°C - Calm Calm -- 29.21 in989.2 mb 0.00 in0.0 mm 0.00 in0.0 mm 0.00 in0.0 mm
11:46 PM 48.6°F9.2°C -167.9°F-111.1°C - Calm Calm 2.0 mph3.2 kmh 29.21 in989.2 mb 0.00 in0.0 mm 0.00 in0.0 mm 0.00 in0.0 mm